Time;durP1;ratioP1;P1;durP2;ratioP2;P2;SDS_P1;SDS_P2;PMS_P1;PMS_P2;Temp;Humidity;BMP_temperature;BMP_pressure;BME280_temperature;BME280_humidity;BME280_pressure;Samples;Min_cycle;Max_cycle;Signal;HPM_P1;HPM_P2
2022/06/25 00:01:25;;;;;;;2.37;1.40;;;;;;;20.04;67.51;97122.44;6181447;28;20600;-89
2022/06/25 01:04:02;;;;;;;1.23;0.60;;;;;;;19.23;67.19;97250.38;5455308;28;20611;-89
2022/06/25 01:07:04;;;;;;;0.87;0.40;;;;;;;19.15;66.89;97235.25;6206759;28;20243;-89
2022/06/25 01:10:07;;;;;;;0.57;0.40;;;;;;;19.04;66.30;97240.25;6190993;28;20240;-88
2022/06/25 01:13:09;;;;;;;0.40;0.20;;;;;;;18.92;66.34;97250.59;6189335;28;20254;-89
2022/06/25 01:16:12;;;;;;;3.33;0.40;;;;;;;18.65;65.35;97248.59;6206669;28;20257;-89
2022/06/25 01:19:14;;;;;;;1.90;0.27;;;;;;;18.55;65.48;97262.19;6206755;28;20590;-89
2022/06/25 01:22:17;;;;;;;1.37;0.20;;;;;;;18.40;64.87;97259.50;6191271;28;20602;-89
2022/06/25 01:25:20;;;;;;;0.30;0.30;;;;;;;18.41;64.83;97263.81;6189584;28;20738;-89
2022/06/25 01:28:22;;;;;;;0.27;0.13;;;;;;;18.24;63.35;97273.00;6190610;28;20314;-88
2022/06/25 01:31:25;;;;;;;0.30;0.20;;;;;;;18.12;62.91;97262.94;6206128;28;20679;-89
2022/06/25 01:34:27;;;;;;;1.20;0.30;;;;;;;18.05;63.46;97260.16;6205869;28;20220;-89
2022/06/25 01:37:29;;;;;;;0.27;0.20;;;;;;;18.02;62.86;97253.34;6206524;28;20375;-88
2022/06/25 01:40:35;;;;;;;0.57;0.20;;;;;;;17.96;63.61;97245.22;6205643;28;20604;-88
2022/06/25 01:43:37;;;;;;;0.20;0.10;;;;;;;17.93;63.13;97253.59;6197591;28;20267;-88
2022/06/25 01:46:39;;;;;;;0.20;0.20;;;;;;;17.93;63.12;97273.13;6166483;28;20720;-88
2022/06/25 01:49:45;;;;;;;0.10;0.10;;;;;;;17.88;62.75;97250.63;6187778;28;20232;-89
2022/06/25 01:52:47;;;;;;;2.30;0.30;;;;;;;17.88;62.98;97246.09;6209274;28;20236;-88
2022/06/25 01:55:49;;;;;;;1.60;0.20;;;;;;;17.77;63.91;97251.88;6194429;28;20236;-89
2022/06/25 01:58:52;;;;;;;0.33;0.10;;;;;;;17.78;63.90;97253.53;6171392;28;20712;-88
2022/06/25 02:01:55;;;;;;;0.10;0.10;;;;;;;17.81;64.13;97258.53;6203241;28;20232;-89
2022/06/25 02:04:57;;;;;;;0.20;0.20;;;;;;;17.75;64.74;97269.09;6188886;28;20259;-89
2022/06/25 02:07:59;;;;;;;1.60;0.60;;;;;;;17.60;64.47;97264.47;6206297;28;20264;-88
2022/06/25 02:11:07;;;;;;;0.97;0.20;;;;;;;17.60;65.06;97271.66;6189395;28;20739;-88
2022/06/25 02:14:11;;;;;;;0.30;0.30;;;;;;;17.62;64.72;97273.16;6189083;28;20236;-88
2022/06/25 02:17:13;;;;;;;1.40;0.20;;;;;;;17.62;64.64;97280.31;6189630;28;20236;-89
2022/06/25 02:20:16;;;;;;;0.93;0.10;;;;;;;17.59;64.26;97278.81;6190640;28;20331;-89
2022/06/25 02:23:19;;;;;;;0.10;0.10;;;;;;;17.67;64.01;97275.28;6189597;28;20327;-89
2022/06/25 02:26:21;;;;;;;1.80;0.20;;;;;;;17.65;64.56;97267.50;6204759;28;20239;-89
2022/06/25 02:29:24;;;;;;;0.87;0.20;;;;;;;17.67;64.31;97280.63;6205298;28;20231;-89
2022/06/25 02:32:26;;;;;;;0.20;0.20;;;;;;;17.60;64.68;97282.31;6188983;28;20254;-89
2022/06/25 02:35:29;;;;;;;0.10;0.10;;;;;;;17.62;64.20;97291.84;6187849;28;20236;-89
2022/06/25 02:38:31;;;;;;;0.10;0.10;;;;;;;17.58;64.77;97281.66;6189224;28;20243;-89
2022/06/25 02:41:33;;;;;;;1.50;0.10;;;;;;;17.59;65.08;97294.00;6188679;28;20722;-89
2022/06/25 02:44:36;;;;;;;1.43;0.10;;;;;;;17.57;64.64;97298.66;6206740;28;20248;-89
2022/06/25 02:47:38;;;;;;;0.93;0.30;;;;;;;17.53;64.84;97316.91;6209192;28;20719;-88
2022/06/25 02:50:44;;;;;;;0.53;0.10;;;;;;;17.54;64.54;97305.22;6192164;28;20236;-89
2022/06/25 02:53:47;;;;;;;0.20;0.10;;;;;;;17.41;64.49;97307.63;6207612;28;20248;-88
2022/06/25 03:00:18;;;;;;;0.73;0.20;;;;;;;17.38;65.06;97331.13;6206380;28;20263;-89
2022/06/25 03:03:21;;;;;;;0.13;0.10;;;;;;;17.26;65.09;97336.88;6174520;28;20699;-89
2022/06/25 03:06:24;;;;;;;0.10;0.10;;;;;;;17.29;65.13;97335.69;6194027;28;20339;-89
2022/06/25 03:09:29;;;;;;;4.33;0.20;;;;;;;17.27;65.29;97332.34;6165330;28;20229;-88
2022/06/25 03:12:37;;;;;;;0.40;0.10;;;;;;;17.27;65.50;97313.69;6184796;28;20239;-89
2022/06/25 03:15:51;;;;;;;0.13;0.13;;;;;;;17.28;65.56;97352.69;6205150;28;20247;-88
2022/06/25 03:18:54;;;;;;;0.10;0.10;;;;;;;17.22;65.38;97354.22;6187601;28;20229;-89
2022/06/25 03:22:14;;;;;;;0.67;0.20;;;;;;;17.18;65.54;97341.38;6190044;28;20229;-88
2022/06/25 03:25:18;;;;;;;0.10;0.10;;;;;;;17.23;65.78;97349.72;6186920;28;20239;-89
2022/06/25 03:28:20;;;;;;;0.80;0.23;;;;;;;17.20;66.14;97358.88;6187384;28;20735;-89
2022/06/25 03:31:22;;;;;;;2.00;0.10;;;;;;;17.16;66.38;97370.91;6188707;28;20571;-89
2022/06/25 03:34:25;;;;;;;0.20;0.20;;;;;;;17.19;67.28;97378.56;6203606;28;20299;-89
2022/06/25 03:37:27;;;;;;;0.10;0.10;;;;;;;17.11;67.97;97372.41;6202575;28;20703;-89
2022/06/25 03:40:30;;;;;;;0.87;0.20;;;;;;;17.01;68.53;97361.13;6172157;28;20228;-89
2022/06/25 03:43:33;;;;;;;0.20;0.20;;;;;;;16.94;69.46;97372.47;6202334;28;20225;-88
2022/06/25 03:46:37;;;;;;;0.80;0.20;;;;;;;16.86;70.65;97351.19;6186970;28;20235;-89
2022/06/25 03:49:39;;;;;;;0.50;0.20;;;;;;;16.72;71.48;97346.53;6187553;28;20390;-88
2022/06/25 03:52:51;;;;;;;0.60;0.40;;;;;;;16.59;72.77;97364.84;6187346;28;20652;-89
2022/06/25 03:55:54;;;;;;;0.60;0.30;;;;;;;16.46;74.87;97352.03;6186197;28;20239;-89
2022/06/25 03:59:02;;;;;;;0.90;0.30;;;;;;;16.25;76.82;97362.38;6187191;28;20236;-89
2022/06/25 04:02:04;;;;;;;1.40;0.40;;;;;;;16.14;77.75;97368.84;6188099;28;20243;-89
2022/06/25 04:05:26;;;;;;;0.30;0.23;;;;;;;16.05;77.58;97366.34;6171656;28;20226;-88
2022/06/25 04:08:32;;;;;;;0.57;0.20;;;;;;;16.01;78.56;97373.81;6160713;28;20288;-88
2022/06/25 04:11:37;;;;;;;0.60;0.20;;;;;;;15.94;78.65;97374.66;6159552;28;20725;-89
2022/06/25 04:14:39;;;;;;;0.30;0.17;;;;;;;15.99;79.23;97375.81;6174914;28;20228;-89
2022/06/25 04:17:41;;;;;;;0.17;0.17;;;;;;;15.96;79.69;97370.84;6144013;28;20241;-88
2022/06/25 04:20:44;;;;;;;0.20;0.20;;;;;;;15.97;79.00;97371.66;6174846;28;20760;-88
2022/06/25 04:23:47;;;;;;;0.30;0.20;;;;;;;15.98;78.68;97379.47;6160347;28;20245;-89
2022/06/25 04:26:51;;;;;;;0.10;0.10;;;;;;;15.96;78.38;97380.66;6148067;28;20269;-89
2022/06/25 04:29:52;;;;;;;0.10;0.10;;;;;;;15.97;77.79;97377.00;6158795;28;20273;-88
2022/06/25 04:32:57;;;;;;;0.63;0.20;;;;;;;16.00;78.09;97382.81;6157910;28;20240;-88
2022/06/25 04:36:07;;;;;;;0.40;0.17;;;;;;;16.04;78.28;97383.31;6134466;28;20218;-88
2022/06/25 04:39:20;;;;;;;0.10;0.10;;;;;;;16.03;77.10;97384.31;6159912;28;20705;-88
2022/06/25 04:42:23;;;;;;;0.20;0.20;;;;;;;16.06;77.86;97390.16;6158597;28;20286;-88
2022/06/25 04:45:25;;;;;;;0.10;0.10;;;;;;;16.05;77.95;97380.50;6175454;28;20261;-89
2022/06/25 04:48:50;;;;;;;0.20;0.10;;;;;;;16.00;78.13;97377.47;6174701;28;20245;-88
2022/06/25 04:52:19;;;;;;;0.20;0.20;;;;;;;15.90;77.33;97384.78;6159632;28;20260;-88
2022/06/25 04:55:21;;;;;;;0.20;0.20;;;;;;;15.93;78.33;97392.44;6158016;28;20319;-88
2022/06/25 04:58:23;;;;;;;1.13;0.43;;;;;;;15.87;79.13;97393.91;6159022;28;20234;-88
2022/06/25 05:02:01;;;;;;;0.63;0.30;;;;;;;15.75;79.52;97403.22;6153672;28;20261;-88
2022/06/25 05:05:13;;;;;;;0.30;0.30;;;;;;;15.67;80.57;97403.19;6158189;28;20229;-89
2022/06/25 05:08:15;;;;;;;0.20;0.20;;;;;;;15.66;80.97;97416.66;6141254;28;20359;-90
2022/06/25 05:11:17;;;;;;;0.87;0.33;;;;;;;15.67;81.66;97403.19;6142177;28;20577;-89
2022/06/25 05:14:19;;;;;;;2.77;0.50;;;;;;;15.67;82.21;97402.38;6137088;28;20618;-88
2022/06/25 05:17:21;;;;;;;0.57;0.30;;;;;;;15.65;82.32;97407.84;6141694;28;20233;-89
2022/06/25 05:20:24;;;;;;;0.67;0.30;;;;;;;15.65;82.76;97405.19;6157541;28;20238;-89
2022/06/25 05:23:26;;;;;;;0.73;0.50;;;;;;;15.66;83.10;97414.00;6168182;28;20234;-89
2022/06/25 05:26:30;;;;;;;0.60;0.40;;;;;;;15.68;83.68;97419.97;6143544;28;20229;-89
2022/06/25 05:29:32;;;;;;;0.63;0.30;;;;;;;15.68;83.50;97426.13;6173925;28;20236;-89
2022/06/25 05:32:35;;;;;;;0.93;0.40;;;;;;;15.74;83.96;97417.53;6158476;28;20214;-89
2022/06/25 05:35:37;;;;;;;1.80;0.60;;;;;;;15.73;84.22;97434.47;6181047;28;20605;-89
2022/06/25 05:38:39;;;;;;;0.83;0.50;;;;;;;15.78;84.48;97431.31;6142067;28;20237;-89
2022/06/25 05:41:41;;;;;;;0.27;0.27;;;;;;;15.90;84.43;97439.84;6142154;28;20230;-89
2022/06/25 05:44:43;;;;;;;0.73;0.50;;;;;;;15.86;84.23;97442.84;6158808;28;20233;-89
2022/06/25 05:47:45;;;;;;;0.47;0.40;;;;;;;15.86;84.62;97440.19;6170029;28;20705;-89
2022/06/25 05:50:47;;;;;;;0.87;0.40;;;;;;;15.91;84.59;97441.50;6173604;28;20315;-88
2022/06/25 05:53:49;;;;;;;0.40;0.40;;;;;;;15.97;84.79;97449.66;6164228;28;20240;-89
2022/06/25 05:56:51;;;;;;;0.30;0.30;;;;;;;16.08;84.82;97437.88;6156288;28;20593;-88
2022/06/25 05:59:53;;;;;;;2.57;0.57;;;;;;;16.17;84.56;97442.25;6189135;28;20372;-88
2022/06/25 06:02:55;;;;;;;0.20;0.20;;;;;;;16.22;83.52;97437.25;6159984;28;20324;-88
2022/06/25 06:05:58;;;;;;;0.30;0.30;;;;;;;16.34;83.67;97449.25;6203673;28;20318;-89
2022/06/25 06:09:00;;;;;;;0.63;0.23;;;;;;;16.34;83.16;97448.44;6180075;28;20383;-88
2022/06/25 06:12:02;;;;;;;1.20;0.30;;;;;;;16.56;82.59;97445.13;6185255;28;20777;-88
2022/06/25 06:15:05;;;;;;;0.30;0.30;;;;;;;16.73;82.51;97435.31;6188192;28;20236;-88
2022/06/25 06:18:07;;;;;;;0.30;0.30;;;;;;;16.83;82.27;97442.13;6182037;28;20221;-88
2022/06/25 06:21:09;;;;;;;0.30;0.30;;;;;;;16.77;81.13;97450.78;6193213;28;20208;-88
2022/06/25 06:24:16;;;;;;;0.40;0.33;;;;;;;16.72;80.97;97453.13;6200334;28;20202;-88
2022/06/25 06:27:18;;;;;;;0.20;0.20;;;;;;;16.86;80.67;97465.81;6181449;28;20232;-89
2022/06/25 06:30:20;;;;;;;0.40;0.30;;;;;;;16.88;80.91;97458.44;6189275;28;20694;-88
2022/06/25 06:33:23;;;;;;;0.30;0.30;;;;;;;17.04;80.73;97462.09;6179995;28;20275;-88
2022/06/25 06:36:26;;;;;;;0.50;0.40;;;;;;;17.17;81.04;97462.44;6190075;28;20591;-88
2022/06/25 06:39:28;;;;;;;1.57;0.50;;;;;;;17.32;80.90;97463.38;6180245;28;20675;-88
2022/06/25 06:42:30;;;;;;;0.40;0.40;;;;;;;17.29;80.12;97469.88;6188500;28;20598;-87
2022/06/25 06:45:32;;;;;;;0.40;0.40;;;;;;;17.42;79.63;97473.84;6203717;28;20232;-88
2022/06/25 06:48:34;;;;;;;0.40;0.40;;;;;;;17.45;80.85;97477.03;6188110;28;20753;-87
2022/06/25 06:51:36;;;;;;;0.60;0.37;;;;;;;17.30;78.98;97479.56;6190703;28;20695;-88
2022/06/25 06:54:38;;;;;;;0.50;0.50;;;;;;;17.44;79.16;97477.19;6202860;28;20279;-88
2022/06/25 06:57:40;;;;;;;0.83;0.60;;;;;;;17.55;78.73;97474.16;6182847;28;20240;-87
2022/06/25 07:00:47;;;;;;;0.90;0.40;;;;;;;17.53;77.12;97479.66;6181648;28;20696;-88
2022/06/25 07:03:49;;;;;;;0.77;0.30;;;;;;;17.62;78.00;97481.34;6180872;28;20217;-88
2022/06/25 07:06:52;;;;;;;0.67;0.40;;;;;;;17.73;78.50;97474.78;6187629;28;20228;-89
2022/06/25 07:09:54;;;;;;;1.13;0.50;;;;;;;17.83;78.10;97480.75;6203654;28;20224;-88
2022/06/25 07:12:56;;;;;;;0.30;0.30;;;;;;;17.97;78.42;97473.84;6185974;28;20239;-88
2022/06/25 07:15:58;;;;;;;0.60;0.40;;;;;;;17.85;78.15;97478.75;6163743;28;20241;-88
2022/06/25 07:19:02;;;;;;;0.30;0.30;;;;;;;17.97;78.42;97488.03;6180105;28;20229;-88
2022/06/25 07:22:06;;;;;;;0.60;0.30;;;;;;;18.14;78.35;97472.75;6197416;28;20811;-88
2022/06/25 07:25:09;;;;;;;0.40;0.40;;;;;;;18.36;77.63;97479.16;6184867;28;20292;-88
2022/06/25 07:28:14;;;;;;;0.37;0.37;;;;;;;18.47;77.21;97475.25;6199311;28;20228;-88
2022/06/25 07:31:16;;;;;;;0.40;0.40;;;;;;;18.67;76.66;97484.44;6203716;28;20232;-89
2022/06/25 07:34:18;;;;;;;0.50;0.50;;;;;;;18.80;76.36;97492.72;6203083;28;20228;-87
2022/06/25 07:37:20;;;;;;;0.40;0.40;;;;;;;18.81;76.13;97483.69;6194224;28;20259;-88
2022/06/25 07:40:24;;;;;;;0.30;0.30;;;;;;;19.21;74.85;97485.16;6185909;28;20247;-88
2022/06/25 07:43:27;;;;;;;1.03;0.40;;;;;;;19.63;73.48;97503.34;6201550;28;20315;-88
2022/06/25 07:46:29;;;;;;;0.97;0.30;;;;;;;19.83;70.50;97500.94;6197640;28;20711;-88
2022/06/25 07:51:56;;;;;;;1.03;0.33;;;;;;;19.84;70.45;97495.41;6162949;28;20719;-88
2022/06/25 07:52:54;;;;;;;8.00;0.40;;;;;;;19.88;68.72;97491.31;6183459;28;20291;-88
2022/06/25 07:55:56;;;;;;;0.20;0.20;;;;;;;20.32;68.12;97498.44;6182284;28;20243;-88
2022/06/25 07:59:00;;;;;;;0.73;0.40;;;;;;;20.42;68.55;97500.84;6183578;28;20672;-88
2022/06/25 08:02:02;;;;;;;0.40;0.40;;;;;;;20.39;67.83;97502.06;6185679;28;20235;-88
2022/06/25 08:05:05;;;;;;;0.77;0.20;;;;;;;20.46;68.42;97511.00;6194938;28;20267;-88
2022/06/25 08:08:07;;;;;;;0.20;0.20;;;;;;;20.30;68.18;97521.94;6204832;28;20287;-88
2022/06/25 08:11:09;;;;;;;0.20;0.20;;;;;;;20.33;66.02;97518.88;6172021;28;20240;-88
2022/06/25 08:14:12;;;;;;;1.30;0.40;;;;;;;20.39;65.96;97515.47;6191243;28;20230;-87
2022/06/25 08:17:14;;;;;;;1.60;0.30;;;;;;;20.68;66.23;97525.25;6187238;28;20700;-88
2022/06/25 08:20:16;;;;;;;0.57;0.20;;;;;;;20.90;64.80;97521.56;6202243;28;20952;-88
2022/06/25 08:23:18;;;;;;;0.43;0.40;;;;;;;21.16;64.12;97539.75;6169462;28;20513;-89
2022/06/25 08:26:22;;;;;;;0.53;0.30;;;;;;;21.59;62.28;97520.94;6184909;28;20251;-88
2022/06/25 08:29:24;;;;;;;0.23;0.23;;;;;;;21.75;62.12;97531.38;6179645;28;20232;-89
2022/06/25 08:32:26;;;;;;;0.70;0.33;;;;;;;21.88;61.98;97534.13;6183132;28;20224;-88
2022/06/25 08:35:28;;;;;;;0.83;0.20;;;;;;;21.72;63.01;97535.28;6203956;28;20244;-89
2022/06/25 08:38:31;;;;;;;0.27;0.20;;;;;;;21.60;61.80;97544.06;6201081;28;20216;-88
2022/06/25 08:41:33;;;;;;;1.03;0.33;;;;;;;21.39;63.92;97546.81;6194819;28;20226;-88
2022/06/25 08:44:35;;;;;;;1.17;0.60;;;;;;;20.66;63.99;97550.63;6184376;28;20235;-88
2022/06/25 08:47:46;;;;;;;0.40;0.40;;;;;;;20.21;66.54;97556.03;6186291;28;20231;-88
2022/06/25 08:50:50;;;;;;;0.37;0.37;;;;;;;19.80;67.25;97561.03;6206862;28;20240;-89
2022/06/25 08:53:52;;;;;;;0.43;0.30;;;;;;;19.20;69.03;97554.91;6170324;28;20237;-88
2022/06/25 08:56:55;;;;;;;0.50;0.40;;;;;;;18.72;70.21;97559.63;6205899;28;20239;-88
2022/06/25 08:59:57;;;;;;;0.40;0.40;;;;;;;18.69;70.78;97568.81;6187474;28;20232;-89
2022/06/25 09:30:31;;;;;;;1.17;0.50;;;;;;;18.51;71.49;97570.91;6171212;28;20237;-88
2022/06/25 09:33:35;;;;;;;0.80;0.43;;;;;;;18.58;71.49;97563.88;6199604;28;20379;-88
2022/06/25 09:36:37;;;;;;;0.40;0.40;;;;;;;18.70;72.15;97575.84;6184983;28;20749;-88
2022/06/25 09:39:41;;;;;;;0.57;0.53;;;;;;;18.79;72.91;97573.94;6175025;28;20253;-88
2022/06/25 09:42:46;;;;;;;0.40;0.40;;;;;;;18.73;73.35;97577.34;6187888;28;20228;-88
2022/06/25 09:45:52;;;;;;;0.40;0.40;;;;;;;18.74;72.79;97574.47;6180957;28;20593;-88
2022/06/25 09:48:54;;;;;;;0.60;0.60;;;;;;;18.63;72.74;97579.41;6203838;28;20270;-88
2022/06/25 09:52:01;;;;;;;0.47;0.47;;;;;;;18.76;72.89;97572.47;6205640;28;20311;-88
2022/06/25 09:55:04;;;;;;;0.97;0.50;;;;;;;18.92;72.03;97573.34;6186494;28;20304;-88
2022/06/25 09:58:07;;;;;;;0.63;0.50;;;;;;;19.01;72.48;97572.28;6181765;28;20781;-87
2022/06/25 10:01:10;;;;;;;1.17;0.40;;;;;;;18.99;71.72;97569.78;6182698;28;20236;-88
2022/06/25 10:04:13;;;;;;;0.43;0.43;;;;;;;18.99;71.42;97576.97;6186529;28;20746;-88
2022/06/25 10:07:17;;;;;;;1.40;0.60;;;;;;;19.03;70.83;97573.78;6173308;28;20724;-88
2022/06/25 10:10:21;;;;;;;0.43;0.43;;;;;;;18.98;69.60;97581.50;6189228;28;20790;-89
2022/06/25 10:13:24;;;;;;;0.40;0.40;;;;;;;19.00;69.01;97573.28;6188412;28;20220;-88
2022/06/25 10:16:29;;;;;;;1.60;0.50;;;;;;;19.08;69.40;97568.72;6203945;28;20313;-89
2022/06/25 10:19:32;;;;;;;0.57;0.40;;;;;;;19.13;68.78;97565.50;6189983;28;20315;-88
2022/06/25 10:22:37;;;;;;;0.60;0.60;;;;;;;19.21;69.24;97567.28;6184432;28;20261;-89
2022/06/25 10:25:40;;;;;;;0.33;0.33;;;;;;;19.17;68.67;97572.97;6176504;28;20224;-88
2022/06/25 10:28:43;;;;;;;0.50;0.43;;;;;;;19.04;67.49;97567.41;6188739;28;20232;-88
2022/06/25 10:31:45;;;;;;;0.73;0.50;;;;;;;19.00;68.24;97579.47;6206059;28;20301;-88
2022/06/25 10:35:01;;;;;;;0.80;0.53;;;;;;;18.88;68.59;97567.53;6198972;28;20731;-88
2022/06/25 10:38:18;;;;;;;0.70;0.70;;;;;;;18.99;68.33;97569.78;6174357;28;20221;-88
2022/06/25 10:44:41;;;;;;;1.27;0.50;;;;;;;19.31;67.39;97567.84;6204297;28;20767;-88
2022/06/25 10:47:58;;;;;;;0.40;0.40;;;;;;;19.59;65.91;97562.78;6189798;28;20771;-88
2022/06/25 10:51:00;;;;;;;0.40;0.40;;;;;;;19.95;66.45;97568.28;6180918;28;20256;-87
2022/06/25 10:54:04;;;;;;;1.37;0.40;;;;;;;20.17;64.72;97561.94;6188662;28;20279;-87
2022/06/25 10:57:07;;;;;;;1.40;0.43;;;;;;;20.47;63.98;97560.09;6171037;28;20212;-88
2022/06/25 11:00:14;;;;;;;0.87;0.33;;;;;;;20.72;64.10;97556.06;6204198;28;20307;-88
2022/06/25 11:03:37;;;;;;;0.60;0.50;;;;;;;20.87;63.81;97564.03;6180777;28;20227;-88
2022/06/25 11:06:42;;;;;;;1.17;0.50;;;;;;;20.94;63.69;97554.22;6208920;28;20217;-89
2022/06/25 11:09:58;;;;;;;0.47;0.47;;;;;;;20.68;64.37;97551.25;6189760;28;20570;-89
2022/06/25 11:13:01;;;;;;;0.43;0.33;;;;;;;20.64;63.78;97566.91;6182744;28;20295;-88
2022/06/25 11:16:24;;;;;;;0.40;0.33;;;;;;;20.40;61.97;97543.09;6193419;28;20278;-88
2022/06/25 11:19:27;;;;;;;1.57;0.57;;;;;;;20.74;63.06;97539.78;6196708;28;20672;-88
2022/06/25 11:22:29;;;;;;;0.40;0.40;;;;;;;20.94;62.64;97540.81;6181771;28;20236;-88
2022/06/25 11:29:21;;;;;;;0.60;0.40;;;;;;;21.01;63.25;97536.34;6195525;28;20221;-88
2022/06/25 11:32:26;;;;;;;0.82;0.55;;;;;;;21.34;63.08;97536.66;6199877;28;20606;-88
2022/06/25 11:35:42;;;;;;;0.50;0.50;;;;;;;21.47;61.62;97533.22;6195974;28;20220;-88
2022/06/25 11:38:51;;;;;;;2.00;0.40;;;;;;;21.78;61.14;97522.06;6183285;28;20225;-89
2022/06/25 11:41:54;;;;;;;0.97;0.60;;;;;;;21.88;59.88;97520.69;6196238;28;20228;-89
2022/06/25 11:44:56;;;;;;;0.50;0.50;;;;;;;22.12;60.52;97523.97;6187968;28;20279;-88
2022/06/25 11:48:04;;;;;;;2.90;0.57;;;;;;;22.41;58.89;97529.88;6173899;28;20310;-89
2022/06/25 11:51:07;;;;;;;0.60;0.40;;;;;;;22.86;58.25;97514.06;6185706;28;20204;-88
2022/06/25 11:54:10;;;;;;;0.87;0.53;;;;;;;23.24;57.12;97508.13;6200075;28;20208;-88
2022/06/25 11:57:19;;;;;;;2.27;0.50;;;;;;;23.28;55.50;97506.66;6190166;28;20196;-88
2022/06/25 12:00:21;;;;;;;0.53;0.50;;;;;;;23.17;55.59;97502.72;6193097;28;20236;-88
2022/06/25 12:03:29;;;;;;;0.43;0.33;;;;;;;23.20;55.24;97505.00;6170703;28;20340;-88
2022/06/25 12:06:31;;;;;;;0.40;0.40;;;;;;;23.34;54.82;97503.13;6187501;28;20531;-89
2022/06/25 12:09:34;;;;;;;0.37;0.37;;;;;;;23.35;55.70;97505.63;6201810;28;20232;-88
2022/06/25 12:12:38;;;;;;;0.43;0.43;;;;;;;23.08;52.90;97507.47;6182666;28;20612;-89
2022/06/25 12:15:41;;;;;;;1.73;0.53;;;;;;;23.12;54.31;97503.34;6186826;28;20229;-89
2022/06/25 12:18:44;;;;;;;0.80;0.50;;;;;;;23.06;53.84;97512.22;6197801;28;20235;-89
2022/06/25 12:21:47;;;;;;;1.10;0.43;;;;;;;22.98;54.41;97493.59;6194858;28;20902;-89
2022/06/25 12:24:51;;;;;;;0.90;0.50;;;;;;;23.11;54.65;97488.22;6199850;28;20236;-89
2022/06/25 12:27:54;;;;;;;0.80;0.57;;;;;;;23.17;54.60;97491.94;6181682;28;20224;-89
2022/06/25 12:31:07;;;;;;;0.40;0.40;;;;;;;23.16;55.17;97493.81;6177504;28;20286;-90
2022/06/25 12:34:10;;;;;;;0.40;0.30;;;;;;;23.49;55.07;97495.66;6176171;28;20702;-89
2022/06/25 12:37:26;;;;;;;0.60;0.50;;;;;;;23.87;54.26;97496.63;6165472;28;20237;-89
2022/06/25 12:40:30;;;;;;;1.33;0.50;;;;;;;24.11;53.43;97489.72;6179413;28;20221;-89
2022/06/25 12:43:46;;;;;;;1.60;0.70;;;;;;;24.34;53.26;97488.44;6175284;28;20204;-88
2022/06/25 12:46:58;;;;;;;0.77;0.40;;;;;;;24.39;52.02;97494.00;6175108;28;20236;-90
2022/06/25 12:50:01;;;;;;;0.63;0.30;;;;;;;24.76;51.76;97486.91;6193719;28;20229;-89
2022/06/25 12:53:18;;;;;;;3.90;0.60;;;;;;;24.93;52.01;97494.34;6192331;28;20260;-89
2022/06/25 12:56:20;;;;;;;1.20;0.47;;;;;;;24.71;52.67;97484.91;6179038;28;20352;-89
2022/06/25 12:59:22;;;;;;;0.38;0.38;;;;;;;24.60;52.61;97496.38;6163903;28;20221;-87
2022/06/25 13:02:25;;;;;;;1.17;0.57;;;;;;;24.55;52.46;97490.81;6180423;28;20217;-90
2022/06/25 13:05:28;;;;;;;0.63;0.50;;;;;;;24.40;51.44;97479.47;6180852;28;20225;-90
2022/06/25 13:08:30;;;;;;;0.97;0.50;;;;;;;24.36;50.57;97486.31;6165115;28;20237;-90
2022/06/25 13:11:33;;;;;;;0.50;0.50;;;;;;;24.18;53.45;97487.81;6195963;28;20319;-90
2022/06/25 13:14:35;;;;;;;0.40;0.40;;;;;;;24.31;53.35;97489.69;6172376;28;20232;-90
2022/06/25 13:17:38;;;;;;;0.30;0.30;;;;;;;24.54;52.72;97487.28;6194996;28;20260;-90
2022/06/25 13:20:41;;;;;;;0.77;0.50;;;;;;;24.74;51.60;97497.13;6178520;28;20220;-87
2022/06/25 13:23:43;;;;;;;0.60;0.50;;;;;;;24.88;51.29;97490.59;6170308;28;20232;-89
2022/06/25 13:26:46;;;;;;;0.77;0.60;;;;;;;24.77;51.67;97493.97;6177436;28;20228;-87
2022/06/25 13:29:49;;;;;;;1.90;0.50;;;;;;;24.64;51.79;97481.41;6182106;28;20582;-87
2022/06/25 13:32:51;;;;;;;1.17;0.60;;;;;;;24.46;52.64;97484.81;6172512;28;20331;-88
2022/06/25 13:35:54;;;;;;;0.82;0.50;;;;;;;24.28;52.96;97476.63;6181298;28;20220;-87
2022/06/25 13:38:56;;;;;;;0.60;0.60;;;;;;;24.14;52.40;97483.09;6172263;28;20235;-88
2022/06/25 13:41:59;;;;;;;0.40;0.40;;;;;;;24.37;51.38;97482.59;6184154;28;20615;-89
2022/06/25 13:45:01;;;;;;;3.00;0.63;;;;;;;24.60;51.16;97489.09;6203659;28;20239;-88
2022/06/25 13:48:04;;;;;;;0.60;0.60;;;;;;;24.73;50.60;97482.81;6198158;28;20213;-87
2022/06/25 13:51:10;;;;;;;0.40;0.40;;;;;;;25.23;50.23;97475.63;6187868;28;20200;-90
2022/06/25 13:54:17;;;;;;;0.43;0.43;;;;;;;26.03;48.14;97471.09;6198920;28;20220;-90
2022/06/25 13:57:19;;;;;;;0.50;0.50;;;;;;;26.15;46.63;97473.03;6180122;28;20288;-90
2022/06/25 14:00:21;;;;;;;1.45;0.60;;;;;;;26.19;46.61;97474.22;6169819;28;20212;-87
2022/06/25 14:03:24;;;;;;;0.77;0.60;;;;;;;26.15;47.08;97473.03;6189664;28;20663;-87
2022/06/25 14:06:27;;;;;;;0.40;0.40;;;;;;;26.05;47.51;97470.84;6195111;28;20770;-89
2022/06/25 14:09:29;;;;;;;0.40;0.40;;;;;;;25.88;47.55;97472.50;6199221;28;20236;-87
2022/06/25 14:12:36;;;;;;;2.95;0.80;;;;;;;25.99;47.22;97482.56;6190906;28;20236;-87
2022/06/25 14:15:39;;;;;;;0.50;0.50;;;;;;;25.86;47.33;97467.31;6183736;28;20223;-88
2022/06/25 14:18:41;;;;;;;1.25;0.50;;;;;;;25.95;48.02;97476.81;6202343;28;20634;-88
2022/06/25 14:21:47;;;;;;;0.70;0.47;;;;;;;25.95;48.41;97475.97;6193826;28;20312;-90
2022/06/25 14:28:10;;;;;;;0.82;0.50;;;;;;;26.07;48.45;97463.31;6203470;28;20225;-88
2022/06/25 14:31:12;;;;;;;1.60;0.65;;;;;;;26.14;48.87;97469.50;6195223;28;20715;-88
2022/06/25 14:34:15;;;;;;;0.95;0.60;;;;;;;26.33;47.80;97473.03;6186776;28;20225;-90
2022/06/25 14:44:02;;;;;;;0.68;0.50;;;;;;;25.76;48.73;97466.19;6198758;28;20225;-87
2022/06/25 14:47:04;;;;;;;2.03;0.75;;;;;;;25.71;48.28;97458.75;6169687;28;20234;-87
2022/06/25 14:50:07;;;;;;;1.40;0.47;;;;;;;26.21;46.61;97464.00;6194163;28;20228;-88
2022/06/25 14:53:10;;;;;;;0.52;0.52;;;;;;;27.63;44.31;97457.69;6175757;28;20285;-88
2022/06/25 14:56:12;;;;;;;0.60;0.45;;;;;;;29.17;41.57;97453.16;6201065;28;20303;-88
2022/06/25 14:59:14;;;;;;;0.60;0.57;;;;;;;29.11;41.37;97451.44;6200673;28;20212;-88
2022/06/25 15:02:17;;;;;;;0.52;0.50;;;;;;;29.57;39.53;97447.53;6185593;28;20223;-89
2022/06/25 15:05:23;;;;;;;0.52;0.50;;;;;;;32.93;34.07;97452.84;6170939;28;20708;-89
2022/06/25 15:08:25;;;;;;;0.93;0.60;;;;;;;35.25;30.13;97454.31;6184414;28;20422;-89
2022/06/25 15:11:28;;;;;;;0.80;0.70;;;;;;;37.18;26.87;97442.72;6181717;28;20224;-89
2022/06/25 15:14:30;;;;;;;0.70;0.50;;;;;;;38.59;25.50;97443.94;6197274;28;20221;-89
2022/06/25 15:17:33;;;;;;;0.55;0.40;;;;;;;38.29;25.23;97439.88;6167040;28;20602;-88
2022/06/25 15:20:36;;;;;;;1.25;0.38;;;;;;;38.44;25.17;97446.97;6177844;28;20227;-89
2022/06/25 15:23:38;;;;;;;0.80;0.55;;;;;;;38.99;24.13;97450.50;6174505;28;20251;-88
2022/06/25 15:26:40;;;;;;;0.40;0.40;;;;;;;38.74;24.50;97438.06;6185196;28;20231;-89
2022/06/25 15:29:42;;;;;;;1.33;0.47;;;;;;;39.94;22.95;97436.50;6181988;28;20224;-88
2022/06/25 15:32:46;;;;;;;3.25;0.70;;;;;;;40.42;22.45;97442.06;6197040;28;20224;-88
2022/06/25 15:35:48;;;;;;;1.60;0.50;;;;;;;40.70;22.17;97437.09;6179163;28;20220;-88
2022/06/25 15:38:51;;;;;;;0.70;0.60;;;;;;;40.89;22.37;97441.16;6195891;28;20224;-89
2022/06/25 15:41:53;;;;;;;0.90;0.55;;;;;;;40.44;22.24;97434.22;6167562;28;20333;-89
2022/06/25 15:44:55;;;;;;;1.67;0.57;;;;;;;35.72;28.43;97429.75;6167531;28;20235;-89
2022/06/25 15:47:57;;;;;;;0.50;0.43;;;;;;;34.63;30.19;97428.41;6184913;28;20289;-89
2022/06/25 15:50:59;;;;;;;1.02;0.57;;;;;;;34.85;30.28;97433.47;6198927;28;20228;-89
2022/06/25 15:54:02;;;;;;;1.95;0.50;;;;;;;32.29;33.89;97446.09;6179739;28;20311;-88
2022/06/25 15:57:05;;;;;;;1.25;0.52;;;;;;;30.18;37.83;97425.78;6181874;28;20212;-88
2022/06/25 16:00:08;;;;;;;0.65;0.50;;;;;;;28.61;41.85;97435.84;6182591;28;20235;-89
2022/06/25 16:03:10;;;;;;;0.50;0.50;;;;;;;27.51;43.83;97429.72;6183249;28;20213;-89
2022/06/25 16:06:12;;;;;;;2.22;0.70;;;;;;;26.80;46.00;97428.00;6199808;28;20208;-88
2022/06/25 16:09:15;;;;;;;0.70;0.45;;;;;;;26.47;47.04;97431.19;6200807;28;20232;-89
2022/06/25 16:12:17;;;;;;;3.03;0.45;;;;;;;26.09;47.67;97431.47;6175563;28;20224;-89
2022/06/25 16:15:19;;;;;;;0.60;0.60;;;;;;;25.69;49.02;97425.72;6178777;28;20205;-88